sensor_id;sensor_type;location;lat;lon;timestamp;P1;durP1;ratioP1;P2;durP2;ratioP2
9166;SDS011;4618;48.818;9.088;2022-12-18T00:01:35;52.80;;;28.73;;
9166;SDS011;4618;48.818;9.088;2022-12-18T00:04:02;54.17;;;28.67;;
9166;SDS011;4618;48.818;9.088;2022-12-18T00:06:29;62.63;;;29.00;;
9166;SDS011;4618;48.818;9.088;2022-12-18T00:08:57;54.40;;;27.73;;
9166;SDS011;4618;48.818;9.088;2022-12-18T00:11:25;58.23;;;27.93;;
9166;SDS011;4618;48.818;9.088;2022-12-18T00:13:53;54.77;;;27.47;;
9166;SDS011;4618;48.818;9.088;2022-12-18T00:16:21;51.10;;;26.97;;
9166;SDS011;4618;48.818;9.088;2022-12-18T00:18:48;55.73;;;27.83;;
9166;SDS011;4618;48.818;9.088;2022-12-18T00:21:15;56.17;;;28.47;;
9166;SDS011;4618;48.818;9.088;2022-12-18T00:23:42;57.77;;;28.80;;
9166;SDS011;4618;48.818;9.088;2022-12-18T00:26:12;57.17;;;29.47;;
9166;SDS011;4618;48.818;9.088;2022-12-18T00:28:42;57.73;;;28.93;;
9166;SDS011;4618;48.818;9.088;2022-12-18T00:31:16;55.67;;;29.23;;
9166;SDS011;4618;48.818;9.088;2022-12-18T00:33:43;60.60;;;28.77;;
9166;SDS011;4618;48.818;9.088;2022-12-18T00:36:10;52.53;;;28.90;;
9166;SDS011;4618;48.818;9.088;2022-12-18T00:38:37;52.70;;;27.10;;
9166;SDS011;4618;48.818;9.088;2022-12-18T00:41:03;53.30;;;27.10;;
9166;SDS011;4618;48.818;9.088;2022-12-18T00:43:30;54.53;;;28.33;;
9166;SDS011;4618;48.818;9.088;2022-12-18T00:45:58;58.53;;;28.97;;
9166;SDS011;4618;48.818;9.088;2022-12-18T00:48:24;55.27;;;28.40;;
9166;SDS011;4618;48.818;9.088;2022-12-18T00:50:50;55.47;;;27.90;;
9166;SDS011;4618;48.818;9.088;2022-12-18T00:53:16;54.47;;;28.33;;
9166;SDS011;4618;48.818;9.088;2022-12-18T00:55:42;51.07;;;27.30;;
9166;SDS011;4618;48.818;9.088;2022-12-18T00:58:08;49.40;;;27.67;;
9166;SDS011;4618;48.818;9.088;2022-12-18T01:00:34;47.07;;;26.00;;
9166;SDS011;4618;48.818;9.088;2022-12-18T01:03:00;48.60;;;25.23;;
9166;SDS011;4618;48.818;9.088;2022-12-18T01:05:26;49.67;;;26.17;;
9166;SDS011;4618;48.818;9.088;2022-12-18T01:07:52;52.57;;;27.13;;
9166;SDS011;4618;48.818;9.088;2022-12-18T01:10:17;49.30;;;25.60;;
9166;SDS011;4618;48.818;9.088;2022-12-18T01:12:43;52.43;;;27.53;;
9166;SDS011;4618;48.818;9.088;2022-12-18T01:15:09;54.00;;;26.60;;
9166;SDS011;4618;48.818;9.088;2022-12-18T01:17:36;52.47;;;27.87;;
9166;SDS011;4618;48.818;9.088;2022-12-18T01:20:03;50.90;;;26.50;;
9166;SDS011;4618;48.818;9.088;2022-12-18T01:22:29;54.60;;;27.17;;
9166;SDS011;4618;48.818;9.088;2022-12-18T01:24:54;52.83;;;27.77;;
9166;SDS011;4618;48.818;9.088;2022-12-18T01:27:20;56.27;;;27.73;;
9166;SDS011;4618;48.818;9.088;2022-12-18T01:29:45;55.47;;;28.03;;
9166;SDS011;4618;48.818;9.088;2022-12-18T01:32:11;50.93;;;27.80;;
9166;SDS011;4618;48.818;9.088;2022-12-18T01:34:37;57.57;;;27.20;;
9166;SDS011;4618;48.818;9.088;2022-12-18T01:37:03;55.60;;;29.73;;
9166;SDS011;4618;48.818;9.088;2022-12-18T01:39:29;56.87;;;28.43;;
9166;SDS011;4618;48.818;9.088;2022-12-18T01:41:56;55.10;;;29.90;;
9166;SDS011;4618;48.818;9.088;2022-12-18T01:47:25;56.40;;;28.80;;
9166;SDS011;4618;48.818;9.088;2022-12-18T01:49:51;59.70;;;28.43;;
9166;SDS011;4618;48.818;9.088;2022-12-18T01:52:17;53.90;;;28.43;;
9166;SDS011;4618;48.818;9.088;2022-12-18T01:54:45;54.90;;;29.00;;
9166;SDS011;4618;48.818;9.088;2022-12-18T01:57:13;50.40;;;26.67;;
9166;SDS011;4618;48.818;9.088;2022-12-18T01:59:39;52.47;;;27.03;;
9166;SDS011;4618;48.818;9.088;2022-12-18T02:02:07;47.93;;;26.67;;
9166;SDS011;4618;48.818;9.088;2022-12-18T02:04:33;54.07;;;27.00;;
9166;SDS011;4618;48.818;9.088;2022-12-18T02:07:11;58.43;;;27.90;;
9166;SDS011;4618;48.818;9.088;2022-12-18T02:09:43;51.40;;;25.40;;
9166;SDS011;4618;48.818;9.088;2022-12-18T02:17:13;49.17;;;26.27;;
9166;SDS011;4618;48.818;9.088;2022-12-18T02:22:48;51.20;;;26.07;;
9166;SDS011;4618;48.818;9.088;2022-12-18T02:25:43;54.13;;;27.20;;
9166;SDS011;4618;48.818;9.088;2022-12-18T02:28:23;57.47;;;27.83;;
9166;SDS011;4618;48.818;9.088;2022-12-18T02:30:52;49.73;;;26.60;;
9166;SDS011;4618;48.818;9.088;2022-12-18T02:33:21;54.93;;;26.40;;
9166;SDS011;4618;48.818;9.088;2022-12-18T02:35:47;50.83;;;26.10;;
9166;SDS011;4618;48.818;9.088;2022-12-18T02:38:14;51.87;;;24.97;;
9166;SDS011;4618;48.818;9.088;2022-12-18T02:40:41;46.17;;;24.10;;
9166;SDS011;4618;48.818;9.088;2022-12-18T02:43:11;55.63;;;26.13;;
9166;SDS011;4618;48.818;9.088;2022-12-18T02:45:46;54.80;;;26.70;;
9166;SDS011;4618;48.818;9.088;2022-12-18T02:48:22;46.93;;;25.53;;
9166;SDS011;4618;48.818;9.088;2022-12-18T02:50:58;59.33;;;26.53;;
9166;SDS011;4618;48.818;9.088;2022-12-18T02:53:45;50.10;;;25.60;;
9166;SDS011;4618;48.818;9.088;2022-12-18T02:56:27;57.67;;;26.77;;
9166;SDS011;4618;48.818;9.088;2022-12-18T02:59:06;47.30;;;25.77;;
9166;SDS011;4618;48.818;9.088;2022-12-18T03:01:57;50.60;;;24.87;;
9166;SDS011;4618;48.818;9.088;2022-12-18T03:04:30;50.20;;;26.83;;
9166;SDS011;4618;48.818;9.088;2022-12-18T03:07:09;49.57;;;26.63;;
9166;SDS011;4618;48.818;9.088;2022-12-18T03:09:41;54.03;;;28.13;;
9166;SDS011;4618;48.818;9.088;2022-12-18T03:14:53;51.63;;;25.43;;
9166;SDS011;4618;48.818;9.088;2022-12-18T03:17:30;52.00;;;25.70;;
9166;SDS011;4618;48.818;9.088;2022-12-18T03:19:58;47.70;;;26.73;;
9166;SDS011;4618;48.818;9.088;2022-12-18T03:22:32;50.27;;;25.40;;
9166;SDS011;4618;48.818;9.088;2022-12-18T03:25:00;51.13;;;26.97;;
9166;SDS011;4618;48.818;9.088;2022-12-18T03:27:29;50.40;;;25.80;;
9166;SDS011;4618;48.818;9.088;2022-12-18T03:30:03;52.93;;;26.43;;
9166;SDS011;4618;48.818;9.088;2022-12-18T03:35:08;48.17;;;24.50;;
9166;SDS011;4618;48.818;9.088;2022-12-18T03:37:35;49.03;;;25.13;;
9166;SDS011;4618;48.818;9.088;2022-12-18T03:40:01;43.00;;;23.30;;
9166;SDS011;4618;48.818;9.088;2022-12-18T03:42:31;48.90;;;24.87;;
9166;SDS011;4618;48.818;9.088;2022-12-18T03:45:09;45.80;;;25.23;;
9166;SDS011;4618;48.818;9.088;2022-12-18T03:47:38;45.17;;;24.53;;
9166;SDS011;4618;48.818;9.088;2022-12-18T03:50:45;49.93;;;25.03;;
9166;SDS011;4618;48.818;9.088;2022-12-18T03:56:04;43.53;;;23.13;;
9166;SDS011;4618;48.818;9.088;2022-12-18T03:58:31;44.37;;;23.03;;
9166;SDS011;4618;48.818;9.088;2022-12-18T04:00:59;48.13;;;23.63;;
9166;SDS011;4618;48.818;9.088;2022-12-18T04:03:28;51.43;;;25.63;;
9166;SDS011;4618;48.818;9.088;2022-12-18T04:05:56;52.30;;;25.63;;
9166;SDS011;4618;48.818;9.088;2022-12-18T04:08:25;46.83;;;25.57;;
9166;SDS011;4618;48.818;9.088;2022-12-18T04:10:51;46.83;;;24.23;;
9166;SDS011;4618;48.818;9.088;2022-12-18T04:13:29;51.60;;;27.37;;
9166;SDS011;4618;48.818;9.088;2022-12-18T04:15:58;49.10;;;25.97;;
9166;SDS011;4618;48.818;9.088;2022-12-18T04:18:23;52.43;;;25.77;;
9166;SDS011;4618;48.818;9.088;2022-12-18T04:20:49;50.13;;;25.77;;
9166;SDS011;4618;48.818;9.088;2022-12-18T04:23:15;52.47;;;26.13;;
9166;SDS011;4618;48.818;9.088;2022-12-18T04:25:40;53.63;;;26.30;;
9166;SDS011;4618;48.818;9.088;2022-12-18T04:28:06;48.50;;;23.87;;
9166;SDS011;4618;48.818;9.088;2022-12-18T04:30:31;53.60;;;26.80;;
9166;SDS011;4618;48.818;9.088;2022-12-18T04:32:57;53.80;;;25.53;;
9166;SDS011;4618;48.818;9.088;2022-12-18T04:35:23;51.97;;;24.90;;
9166;SDS011;4618;48.818;9.088;2022-12-18T04:37:48;51.37;;;24.97;;
9166;SDS011;4618;48.818;9.088;2022-12-18T04:40:14;49.43;;;25.93;;
9166;SDS011;4618;48.818;9.088;2022-12-18T04:42:40;47.37;;;23.47;;
9166;SDS011;4618;48.818;9.088;2022-12-18T04:45:06;43.63;;;23.20;;
9166;SDS011;4618;48.818;9.088;2022-12-18T04:47:32;47.27;;;23.47;;
9166;SDS011;4618;48.818;9.088;2022-12-18T04:49:58;43.77;;;22.83;;
9166;SDS011;4618;48.818;9.088;2022-12-18T04:52:23;47.00;;;24.40;;
9166;SDS011;4618;48.818;9.088;2022-12-18T04:54:49;44.07;;;22.70;;
9166;SDS011;4618;48.818;9.088;2022-12-18T04:57:14;40.27;;;22.33;;
9166;SDS011;4618;48.818;9.088;2022-12-18T04:59:40;41.07;;;21.37;;
9166;SDS011;4618;48.818;9.088;2022-12-18T05:02:06;43.40;;;22.80;;
9166;SDS011;4618;48.818;9.088;2022-12-18T05:04:31;42.23;;;21.47;;
9166;SDS011;4618;48.818;9.088;2022-12-18T05:06:57;41.20;;;22.20;;
9166;SDS011;4618;48.818;9.088;2022-12-18T05:09:22;41.43;;;21.67;;
9166;SDS011;4618;48.818;9.088;2022-12-18T05:11:48;41.63;;;22.10;;
9166;SDS011;4618;48.818;9.088;2022-12-18T05:14:14;38.47;;;21.23;;
9166;SDS011;4618;48.818;9.088;2022-12-18T05:16:40;39.43;;;21.47;;
9166;SDS011;4618;48.818;9.088;2022-12-18T05:19:05;36.17;;;19.40;;
9166;SDS011;4618;48.818;9.088;2022-12-18T05:21:31;42.03;;;21.83;;
9166;SDS011;4618;48.818;9.088;2022-12-18T05:23:57;42.70;;;21.00;;
9166;SDS011;4618;48.818;9.088;2022-12-18T05:26:22;36.53;;;18.23;;
9166;SDS011;4618;48.818;9.088;2022-12-18T05:28:48;38.63;;;20.40;;
9166;SDS011;4618;48.818;9.088;2022-12-18T05:31:13;41.10;;;21.33;;
9166;SDS011;4618;48.818;9.088;2022-12-18T05:33:40;38.20;;;20.93;;
9166;SDS011;4618;48.818;9.088;2022-12-18T05:36:06;35.27;;;20.50;;
9166;SDS011;4618;48.818;9.088;2022-12-18T05:38:34;37.60;;;20.53;;
9166;SDS011;4618;48.818;9.088;2022-12-18T05:41:01;44.80;;;22.33;;
9166;SDS011;4618;48.818;9.088;2022-12-18T05:43:27;41.33;;;22.40;;
9166;SDS011;4618;48.818;9.088;2022-12-18T05:45:54;38.20;;;21.57;;
9166;SDS011;4618;48.818;9.088;2022-12-18T05:48:20;40.70;;;22.53;;
9166;SDS011;4618;48.818;9.088;2022-12-18T05:50:46;40.23;;;22.10;;
9166;SDS011;4618;48.818;9.088;2022-12-18T05:53:13;40.23;;;21.53;;
9166;SDS011;4618;48.818;9.088;2022-12-18T05:55:41;44.87;;;23.20;;
9166;SDS011;4618;48.818;9.088;2022-12-18T05:58:07;42.07;;;22.57;;
9166;SDS011;4618;48.818;9.088;2022-12-18T06:00:35;39.50;;;22.07;;
9166;SDS011;4618;48.818;9.088;2022-12-18T06:03:04;37.87;;;21.33;;
9166;SDS011;4618;48.818;9.088;2022-12-18T06:05:35;34.53;;;19.90;;
9166;SDS011;4618;48.818;9.088;2022-12-18T06:08:02;37.93;;;20.40;;
9166;SDS011;4618;48.818;9.088;2022-12-18T06:10:27;39.97;;;20.80;;
9166;SDS011;4618;48.818;9.088;2022-12-18T06:12:53;38.13;;;19.77;;
9166;SDS011;4618;48.818;9.088;2022-12-18T06:15:19;39.50;;;19.07;;
9166;SDS011;4618;48.818;9.088;2022-12-18T06:17:44;35.30;;;20.80;;
9166;SDS011;4618;48.818;9.088;2022-12-18T06:20:10;36.70;;;19.20;;
9166;SDS011;4618;48.818;9.088;2022-12-18T06:22:36;43.33;;;20.40;;
9166;SDS011;4618;48.818;9.088;2022-12-18T06:25:01;37.00;;;20.53;;
9166;SDS011;4618;48.818;9.088;2022-12-18T06:27:27;38.73;;;21.10;;
9166;SDS011;4618;48.818;9.088;2022-12-18T06:29:53;38.13;;;19.03;;
9166;SDS011;4618;48.818;9.088;2022-12-18T06:32:18;34.97;;;19.47;;
9166;SDS011;4618;48.818;9.088;2022-12-18T06:34:44;43.80;;;22.27;;
9166;SDS011;4618;48.818;9.088;2022-12-18T06:37:09;38.37;;;19.03;;
9166;SDS011;4618;48.818;9.088;2022-12-18T06:39:35;34.43;;;18.87;;
9166;SDS011;4618;48.818;9.088;2022-12-18T06:42:01;34.30;;;19.17;;
9166;SDS011;4618;48.818;9.088;2022-12-18T06:44:26;31.60;;;18.57;;
9166;SDS011;4618;48.818;9.088;2022-12-18T06:46:52;35.53;;;18.57;;
9166;SDS011;4618;48.818;9.088;2022-12-18T06:49:17;33.73;;;18.77;;
9166;SDS011;4618;48.818;9.088;2022-12-18T06:51:43;40.10;;;19.10;;
9166;SDS011;4618;48.818;9.088;2022-12-18T06:54:09;32.30;;;17.80;;
9166;SDS011;4618;48.818;9.088;2022-12-18T06:56:34;37.00;;;19.97;;
9166;SDS011;4618;48.818;9.088;2022-12-18T06:59:00;36.83;;;18.97;;
9166;SDS011;4618;48.818;9.088;2022-12-18T07:01:25;38.70;;;19.50;;
9166;SDS011;4618;48.818;9.088;2022-12-18T07:03:52;38.27;;;20.73;;
9166;SDS011;4618;48.818;9.088;2022-12-18T07:06:19;35.57;;;18.47;;
9166;SDS011;4618;48.818;9.088;2022-12-18T07:08:47;40.33;;;20.43;;
9166;SDS011;4618;48.818;9.088;2022-12-18T07:11:14;33.20;;;18.00;;
9166;SDS011;4618;48.818;9.088;2022-12-18T07:13:40;34.17;;;18.03;;
9166;SDS011;4618;48.818;9.088;2022-12-18T07:18:36;35.70;;;18.97;;
9166;SDS011;4618;48.818;9.088;2022-12-18T07:21:03;33.73;;;19.07;;
9166;SDS011;4618;48.818;9.088;2022-12-18T07:23:33;36.83;;;18.90;;
9166;SDS011;4618;48.818;9.088;2022-12-18T07:26:00;33.47;;;18.17;;
9166;SDS011;4618;48.818;9.088;2022-12-18T07:28:37;32.60;;;18.13;;
9166;SDS011;4618;48.818;9.088;2022-12-18T07:31:04;34.37;;;18.20;;
9166;SDS011;4618;48.818;9.088;2022-12-18T07:33:31;32.70;;;18.73;;
9166;SDS011;4618;48.818;9.088;2022-12-18T07:36:01;37.67;;;19.80;;
9166;SDS011;4618;48.818;9.088;2022-12-18T07:38:28;37.87;;;19.33;;
9166;SDS011;4618;48.818;9.088;2022-12-18T07:40:54;35.80;;;20.37;;
9166;SDS011;4618;48.818;9.088;2022-12-18T07:43:24;39.17;;;19.40;;
9166;SDS011;4618;48.818;9.088;2022-12-18T07:45:50;42.83;;;21.13;;
9166;SDS011;4618;48.818;9.088;2022-12-18T07:48:15;39.00;;;20.97;;
9166;SDS011;4618;48.818;9.088;2022-12-18T07:50:41;51.83;;;26.07;;
9166;SDS011;4618;48.818;9.088;2022-12-18T07:53:07;58.73;;;29.37;;
9166;SDS011;4618;48.818;9.088;2022-12-18T07:55:32;50.93;;;26.20;;
9166;SDS011;4618;48.818;9.088;2022-12-18T07:58:00;47.90;;;24.90;;
9166;SDS011;4618;48.818;9.088;2022-12-18T08:00:27;43.60;;;23.53;;
9166;SDS011;4618;48.818;9.088;2022-12-18T08:02:52;40.80;;;22.80;;
9166;SDS011;4618;48.818;9.088;2022-12-18T08:05:18;40.93;;;20.83;;
9166;SDS011;4618;48.818;9.088;2022-12-18T08:07:45;39.27;;;20.93;;
9166;SDS011;4618;48.818;9.088;2022-12-18T08:10:11;42.10;;;21.57;;
9166;SDS011;4618;48.818;9.088;2022-12-18T08:12:37;40.73;;;21.60;;
9166;SDS011;4618;48.818;9.088;2022-12-18T08:15:03;39.77;;;21.67;;
9166;SDS011;4618;48.818;9.088;2022-12-18T08:17:28;47.13;;;23.47;;
9166;SDS011;4618;48.818;9.088;2022-12-18T08:19:54;43.60;;;22.17;;
9166;SDS011;4618;48.818;9.088;2022-12-18T08:22:20;40.80;;;22.93;;
9166;SDS011;4618;48.818;9.088;2022-12-18T08:24:45;42.00;;;22.83;;
9166;SDS011;4618;48.818;9.088;2022-12-18T08:27:11;46.07;;;24.53;;
9166;SDS011;4618;48.818;9.088;2022-12-18T08:29:37;48.27;;;24.10;;
9166;SDS011;4618;48.818;9.088;2022-12-18T08:32:03;50.67;;;25.77;;
9166;SDS011;4618;48.818;9.088;2022-12-18T08:34:29;44.73;;;23.97;;
9166;SDS011;4618;48.818;9.088;2022-12-18T08:36:54;47.07;;;25.00;;
9166;SDS011;4618;48.818;9.088;2022-12-18T08:39:20;51.50;;;27.17;;
9166;SDS011;4618;48.818;9.088;2022-12-18T08:41:45;51.80;;;26.43;;
9166;SDS011;4618;48.818;9.088;2022-12-18T08:44:31;49.93;;;26.23;;
9166;SDS011;4618;48.818;9.088;2022-12-18T08:47:06;42.90;;;24.37;;
9166;SDS011;4618;48.818;9.088;2022-12-18T08:49:33;49.13;;;26.43;;
9166;SDS011;4618;48.818;9.088;2022-12-18T08:51:58;49.10;;;26.67;;
9166;SDS011;4618;48.818;9.088;2022-12-18T08:54:25;50.30;;;25.83;;
9166;SDS011;4618;48.818;9.088;2022-12-18T08:56:51;49.70;;;27.20;;
9166;SDS011;4618;48.818;9.088;2022-12-18T08:59:17;49.63;;;28.17;;
9166;SDS011;4618;48.818;9.088;2022-12-18T09:01:43;46.77;;;25.23;;
9166;SDS011;4618;48.818;9.088;2022-12-18T09:04:09;47.87;;;27.90;;
9166;SDS011;4618;48.818;9.088;2022-12-18T09:06:35;46.60;;;26.27;;
9166;SDS011;4618;48.818;9.088;2022-12-18T09:09:02;49.40;;;27.20;;
9166;SDS011;4618;48.818;9.088;2022-12-18T09:11:29;55.70;;;28.67;;
9166;SDS011;4618;48.818;9.088;2022-12-18T09:13:55;49.87;;;27.33;;
9166;SDS011;4618;48.818;9.088;2022-12-18T09:16:22;51.80;;;30.17;;
9166;SDS011;4618;48.818;9.088;2022-12-18T09:18:49;58.70;;;32.23;;
9166;SDS011;4618;48.818;9.088;2022-12-18T09:21:15;74.37;;;37.17;;
9166;SDS011;4618;48.818;9.088;2022-12-18T09:23:43;76.47;;;39.27;;
9166;SDS011;4618;48.818;9.088;2022-12-18T09:26:13;48.43;;;31.43;;
9166;SDS011;4618;48.818;9.088;2022-12-18T09:28:39;51.30;;;29.83;;
9166;SDS011;4618;48.818;9.088;2022-12-18T09:31:06;36.63;;;24.50;;
9166;SDS011;4618;48.818;9.088;2022-12-18T09:33:36;38.60;;;25.27;;
9166;SDS011;4618;48.818;9.088;2022-12-18T09:36:03;37.00;;;23.60;;
9166;SDS011;4618;48.818;9.088;2022-12-18T09:38:30;37.00;;;24.67;;
9166;SDS011;4618;48.818;9.088;2022-12-18T09:40:57;36.17;;;23.67;;
9166;SDS011;4618;48.818;9.088;2022-12-18T09:43:39;34.77;;;23.90;;
9166;SDS011;4618;48.818;9.088;2022-12-18T09:46:19;34.53;;;23.73;;
9166;SDS011;4618;48.818;9.088;2022-12-18T09:48:52;36.27;;;24.07;;
9166;SDS011;4618;48.818;9.088;2022-12-18T09:51:22;34.10;;;23.97;;
9166;SDS011;4618;48.818;9.088;2022-12-18T09:54:00;32.77;;;22.80;;
9166;SDS011;4618;48.818;9.088;2022-12-18T09:56:41;30.73;;;22.73;;
9166;SDS011;4618;48.818;9.088;2022-12-18T09:59:14;33.47;;;23.93;;
9166;SDS011;4618;48.818;9.088;2022-12-18T10:01:49;34.83;;;24.53;;
9166;SDS011;4618;48.818;9.088;2022-12-18T10:04:15;34.77;;;24.30;;
9166;SDS011;4618;48.818;9.088;2022-12-18T10:06:46;31.53;;;23.63;;
9166;SDS011;4618;48.818;9.088;2022-12-18T10:12:08;32.20;;;24.10;;
9166;SDS011;4618;48.818;9.088;2022-12-18T10:14:51;32.17;;;22.53;;
9166;SDS011;4618;48.818;9.088;2022-12-18T10:17:30;32.47;;;24.53;;
9166;SDS011;4618;48.818;9.088;2022-12-18T10:22:50;30.40;;;23.53;;
9166;SDS011;4618;48.818;9.088;2022-12-18T10:25:23;32.60;;;22.97;;
9166;SDS011;4618;48.818;9.088;2022-12-18T10:27:51;34.60;;;24.10;;
9166;SDS011;4618;48.818;9.088;2022-12-18T10:30:21;33.93;;;24.73;;
9166;SDS011;4618;48.818;9.088;2022-12-18T10:32:48;29.87;;;23.50;;
9166;SDS011;4618;48.818;9.088;2022-12-18T10:35:18;34.97;;;25.77;;
9166;SDS011;4618;48.818;9.088;2022-12-18T10:43:26;28.70;;;22.70;;
9166;SDS011;4618;48.818;9.088;2022-12-18T10:48:31;33.33;;;25.20;;
9166;SDS011;4618;48.818;9.088;2022-12-18T10:50:58;30.00;;;22.50;;
9166;SDS011;4618;48.818;9.088;2022-12-18T10:53:28;26.80;;;20.40;;
9166;SDS011;4618;48.818;9.088;2022-12-18T10:55:57;26.70;;;19.43;;
9166;SDS011;4618;48.818;9.088;2022-12-18T11:01:03;27.80;;;20.80;;
9166;SDS011;4618;48.818;9.088;2022-12-18T11:03:44;27.63;;;19.80;;
9166;SDS011;4618;48.818;9.088;2022-12-18T11:06:13;27.97;;;19.80;;
9166;SDS011;4618;48.818;9.088;2022-12-18T11:08:40;27.37;;;19.87;;
9166;SDS011;4618;48.818;9.088;2022-12-18T11:11:14;27.43;;;19.73;;
9166;SDS011;4618;48.818;9.088;2022-12-18T11:13:50;27.47;;;20.17;;
9166;SDS011;4618;48.818;9.088;2022-12-18T11:16:19;26.13;;;18.77;;
9166;SDS011;4618;48.818;9.088;2022-12-18T11:18:45;26.20;;;19.43;;
9166;SDS011;4618;48.818;9.088;2022-12-18T11:21:11;28.10;;;19.10;;
9166;SDS011;4618;48.818;9.088;2022-12-18T11:23:45;25.00;;;18.93;;
9166;SDS011;4618;48.818;9.088;2022-12-18T11:26:14;25.87;;;18.63;;
9166;SDS011;4618;48.818;9.088;2022-12-18T11:28:46;27.97;;;19.57;;
9166;SDS011;4618;48.818;9.088;2022-12-18T11:31:27;27.93;;;19.60;;
9166;SDS011;4618;48.818;9.088;2022-12-18T11:36:33;26.73;;;18.77;;
9166;SDS011;4618;48.818;9.088;2022-12-18T11:39:10;27.87;;;20.33;;
9166;SDS011;4618;48.818;9.088;2022-12-18T11:41:43;36.00;;;24.60;;
9166;SDS011;4618;48.818;9.088;2022-12-18T11:47:21;28.37;;;21.57;;
9166;SDS011;4618;48.818;9.088;2022-12-18T11:50:00;31.13;;;23.57;;
9166;SDS011;4618;48.818;9.088;2022-12-18T11:52:35;30.17;;;22.13;;
9166;SDS011;4618;48.818;9.088;2022-12-18T11:55:38;29.03;;;21.83;;
9166;SDS011;4618;48.818;9.088;2022-12-18T11:58:09;29.13;;;21.27;;
9166;SDS011;4618;48.818;9.088;2022-12-18T12:00:49;27.57;;;21.50;;
9166;SDS011;4618;48.818;9.088;2022-12-18T12:03:51;32.03;;;22.03;;
9166;SDS011;4618;48.818;9.088;2022-12-18T12:17:04;29.27;;;21.53;;
9166;SDS011;4618;48.818;9.088;2022-12-18T12:19:35;30.63;;;21.17;;
9166;SDS011;4618;48.818;9.088;2022-12-18T12:22:15;31.37;;;19.97;;
9166;SDS011;4618;48.818;9.088;2022-12-18T12:24:53;28.90;;;20.00;;
9166;SDS011;4618;48.818;9.088;2022-12-18T12:30:30;28.27;;;19.97;;
9166;SDS011;4618;48.818;9.088;2022-12-18T12:33:12;32.43;;;21.50;;
9166;SDS011;4618;48.818;9.088;2022-12-18T12:38:48;31.53;;;20.70;;
9166;SDS011;4618;48.818;9.088;2022-12-18T12:41:30;32.27;;;20.17;;
9166;SDS011;4618;48.818;9.088;2022-12-18T12:44:20;28.87;;;19.37;;
9166;SDS011;4618;48.818;9.088;2022-12-18T12:46:51;31.50;;;21.37;;
9166;SDS011;4618;48.818;9.088;2022-12-18T12:49:22;30.30;;;20.03;;
9166;SDS011;4618;48.818;9.088;2022-12-18T12:51:54;31.60;;;20.73;;
9166;SDS011;4618;48.818;9.088;2022-12-18T12:54:28;29.03;;;19.43;;
9166;SDS011;4618;48.818;9.088;2022-12-18T12:57:16;33.37;;;22.30;;
9166;SDS011;4618;48.818;9.088;2022-12-18T13:07:59;31.87;;;20.33;;
9166;SDS011;4618;48.818;9.088;2022-12-18T13:10:33;33.37;;;21.07;;
9166;SDS011;4618;48.818;9.088;2022-12-18T13:13:07;33.53;;;21.53;;
9166;SDS011;4618;48.818;9.088;2022-12-18T13:20:40;29.77;;;19.80;;
9166;SDS011;4618;48.818;9.088;2022-12-18T13:25:51;32.23;;;19.80;;
9166;SDS011;4618;48.818;9.088;2022-12-18T13:31:09;34.17;;;21.13;;
9166;SDS011;4618;48.818;9.088;2022-12-18T13:36:14;33.47;;;21.20;;
9166;SDS011;4618;48.818;9.088;2022-12-18T13:38:40;33.33;;;21.30;;
9166;SDS011;4618;48.818;9.088;2022-12-18T13:43:42;38.03;;;21.13;;
9166;SDS011;4618;48.818;9.088;2022-12-18T13:48:57;34.77;;;20.73;;
9166;SDS011;4618;48.818;9.088;2022-12-18T13:51:27;30.80;;;19.87;;
9166;SDS011;4618;48.818;9.088;2022-12-18T13:53:59;33.33;;;21.17;;
9166;SDS011;4618;48.818;9.088;2022-12-18T13:56:29;30.23;;;20.30;;
9166;SDS011;4618;48.818;9.088;2022-12-18T13:59:04;35.63;;;20.90;;
9166;SDS011;4618;48.818;9.088;2022-12-18T14:01:36;30.67;;;19.77;;
9166;SDS011;4618;48.818;9.088;2022-12-18T14:04:12;29.63;;;18.70;;
9166;SDS011;4618;48.818;9.088;2022-12-18T14:06:44;29.47;;;19.57;;
9166;SDS011;4618;48.818;9.088;2022-12-18T14:09:21;33.10;;;20.30;;
9166;SDS011;4618;48.818;9.088;2022-12-18T14:11:50;31.17;;;18.57;;
9166;SDS011;4618;48.818;9.088;2022-12-18T14:14:38;32.87;;;19.03;;
9166;SDS011;4618;48.818;9.088;2022-12-18T14:17:12;28.87;;;18.43;;
9166;SDS011;4618;48.818;9.088;2022-12-18T14:19:41;32.47;;;20.40;;
9166;SDS011;4618;48.818;9.088;2022-12-18T14:22:24;33.03;;;20.43;;
9166;SDS011;4618;48.818;9.088;2022-12-18T14:27:38;30.17;;;19.30;;
9166;SDS011;4618;48.818;9.088;2022-12-18T14:35:30;33.73;;;20.60;;
9166;SDS011;4618;48.818;9.088;2022-12-18T14:40:41;36.73;;;20.33;;
9166;SDS011;4618;48.818;9.088;2022-12-18T14:43:09;38.43;;;20.80;;
9166;SDS011;4618;48.818;9.088;2022-12-18T14:48:05;39.80;;;21.93;;
9166;SDS011;4618;48.818;9.088;2022-12-18T14:50:45;40.17;;;22.20;;
9166;SDS011;4618;48.818;9.088;2022-12-18T14:53:28;37.03;;;21.97;;
9166;SDS011;4618;48.818;9.088;2022-12-18T14:56:20;42.37;;;23.10;;
9166;SDS011;4618;48.818;9.088;2022-12-18T14:58:48;42.43;;;23.63;;
9166;SDS011;4618;48.818;9.088;2022-12-18T15:03:54;41.17;;;23.20;;
9166;SDS011;4618;48.818;9.088;2022-12-18T15:09:01;44.03;;;23.67;;
9166;SDS011;4618;48.818;9.088;2022-12-18T15:16:56;40.87;;;23.80;;
9166;SDS011;4618;48.818;9.088;2022-12-18T15:19:32;43.20;;;23.10;;
9166;SDS011;4618;48.818;9.088;2022-12-18T15:22:04;41.70;;;23.73;;
9166;SDS011;4618;48.818;9.088;2022-12-18T15:24:41;40.03;;;22.97;;
9166;SDS011;4618;48.818;9.088;2022-12-18T15:27:18;41.07;;;23.37;;
9166;SDS011;4618;48.818;9.088;2022-12-18T15:29:59;44.97;;;24.07;;
9166;SDS011;4618;48.818;9.088;2022-12-18T15:32:44;45.43;;;23.63;;
9166;SDS011;4618;48.818;9.088;2022-12-18T15:35:18;48.13;;;24.67;;
9166;SDS011;4618;48.818;9.088;2022-12-18T15:37:49;45.10;;;23.33;;
9166;SDS011;4618;48.818;9.088;2022-12-18T15:40:16;47.63;;;25.00;;
9166;SDS011;4618;48.818;9.088;2022-12-18T15:42:47;41.33;;;23.27;;
9166;SDS011;4618;48.818;9.088;2022-12-18T15:45:32;43.07;;;23.50;;
9166;SDS011;4618;48.818;9.088;2022-12-18T15:47:58;46.67;;;25.07;;
9166;SDS011;4618;48.818;9.088;2022-12-18T15:50:24;43.63;;;24.83;;
9166;SDS011;4618;48.818;9.088;2022-12-18T15:52:51;43.23;;;23.57;;
9166;SDS011;4618;48.818;9.088;2022-12-18T15:55:20;47.60;;;25.67;;
9166;SDS011;4618;48.818;9.088;2022-12-18T15:58:05;54.63;;;27.40;;
9166;SDS011;4618;48.818;9.088;2022-12-18T16:00:32;47.63;;;26.37;;
9166;SDS011;4618;48.818;9.088;2022-12-18T16:03:00;48.00;;;27.13;;
9166;SDS011;4618;48.818;9.088;2022-12-18T16:05:26;47.67;;;25.40;;
9166;SDS011;4618;48.818;9.088;2022-12-18T16:07:52;48.77;;;27.23;;
9166;SDS011;4618;48.818;9.088;2022-12-18T16:10:18;49.87;;;25.27;;
9166;SDS011;4618;48.818;9.088;2022-12-18T16:12:44;45.37;;;24.87;;
9166;SDS011;4618;48.818;9.088;2022-12-18T16:15:11;45.43;;;26.17;;
9166;SDS011;4618;48.818;9.088;2022-12-18T16:17:39;48.07;;;25.70;;
9166;SDS011;4618;48.818;9.088;2022-12-18T16:20:06;46.57;;;25.47;;
9166;SDS011;4618;48.818;9.088;2022-12-18T16:22:42;46.77;;;24.67;;
9166;SDS011;4618;48.818;9.088;2022-12-18T16:25:15;48.33;;;25.27;;
9166;SDS011;4618;48.818;9.088;2022-12-18T16:27:46;48.77;;;25.53;;
9166;SDS011;4618;48.818;9.088;2022-12-18T16:30:15;44.53;;;24.27;;
9166;SDS011;4618;48.818;9.088;2022-12-18T16:32:45;43.23;;;23.77;;
9166;SDS011;4618;48.818;9.088;2022-12-18T16:35:11;49.10;;;26.30;;
9166;SDS011;4618;48.818;9.088;2022-12-18T16:37:38;43.30;;;25.43;;
9166;SDS011;4618;48.818;9.088;2022-12-18T16:40:05;47.93;;;25.50;;
9166;SDS011;4618;48.818;9.088;2022-12-18T16:42:34;46.87;;;25.90;;
9166;SDS011;4618;48.818;9.088;2022-12-18T16:45:03;46.60;;;24.93;;
9166;SDS011;4618;48.818;9.088;2022-12-18T16:47:30;50.60;;;26.70;;
9166;SDS011;4618;48.818;9.088;2022-12-18T16:49:56;47.50;;;27.00;;
9166;SDS011;4618;48.818;9.088;2022-12-18T16:52:21;52.73;;;27.33;;
9166;SDS011;4618;48.818;9.088;2022-12-18T16:54:47;48.30;;;26.47;;